Aleksey Kosygin — A8LY6 — position and weather

sailwx.info

Track history (hours):
 
Tides and Currents Weather Stations Pressure Air Temp Water Temp Dewpoint Dewpoint Depression Visibility Wind Speed Wind Dir Waves Ship Positions

Aleksey Kosygin

Last reported at 2017-Oct-17 10:00 UTC. Time now 2017-Oct-17 10:04 UTC.
Position N 44°17' E 037°49'.

Length 280 m; draft 9.1 m.

Type: Tanker. MMSI: 636013296.

Date/timePositionNaut miles runAvg speedWind from/ knotsBaromVisibWave heightAir tempDewpointWater temp
2017-Oct-17 10:00N 44°17' E 037°49'1 1.1
2017-Oct-17 09:30N 44°17' E 037°48'1 1.0
2017-Oct-17 09:00N 44°16' E 037°48'1 1.1
2017-Oct-17 08:26N 44°16' E 037°47'0 1.2
2017-Oct-17 08:00N 44°15' E 037°47'2339.2
2017-Oct-17 07:26N 44°36' E 038°01'2222.3
2017-Oct-17 06:27N 44°15' E 037°53'3 6.8
2017-Oct-17 05:59N 44°15' E 037°57'2 3.8
2017-Oct-17 05:29N 44°15' E 037°60'1 1.7
2017-Oct-17 05:00N 44°14' E 037°59'1 1.6
2017-Oct-17 04:30N 44°14' E 037°58'1 1.6
2017-Oct-17 03:59N 44°13' E 037°57'1 1.3
2017-Oct-17 03:10N 44°13' E 037°55'0 1.1
2017-Oct-17 02:51N 44°13' E 037°55'1 1.1
2017-Oct-17 02:19N 44°12' E 037°54'1 0.9
2017-Oct-17 00:52N 44°12' E 037°53'1 1.1
2017-Oct-17 00:24N 44°12' E 037°52'4 0.9
2017-Oct-16 19:49N 44°12' E 037°46'7 1.3
2017-Oct-16 14:39N 44°15' E 037°37'1 1.8
2017-Oct-16 14:17N 44°15' E 037°37'1 1.9
2017-Oct-16 13:29N 44°16' E 037°35'1 2.0
2017-Oct-16 13:00N 44°16' E 037°33'1 2.0
2017-Oct-16 12:30N 44°16' E 037°32'1 1.9
2017-Oct-16 12:00N 44°16' E 037°30'1 1.9
2017-Oct-16 11:25N 44°16' E 037°29'1 1.8
2017-Oct-16 11:00N 44°16' E 037°28'1 1.5
2017-Oct-16 10:30N 44°16' E 037°27'1 1.5
2017-Oct-16 10:00N 44°16' E 037°26'1 1.3
2017-Oct-16 09:27N 44°16' E 037°25'1 1.4
2017-Oct-16 08:57N 44°17' E 037°24'1 1.5
2017-Oct-16 08:30N 44°17' E 037°23'1 1.3
2017-Oct-16 07:59N 44°17' E 037°22'1 1.4
2017-Oct-16 07:27N 44°18' E 037°21'1 1.3
2017-Oct-16 06:58N 44°18' E 037°21'1 1.3
2017-Oct-16 06:31N 44°19' E 037°20'1 1.2
2017-Oct-16 06:00N 44°19' E 037°19'1 1.2
2017-Oct-16 05:13N 44°20' E 037°18'0 1.3
2017-Oct-16 04:55N 44°20' E 037°18'12 0.6
2017-Oct-15 07:48N 44°29' E 037°07'8 0.9
2017-Oct-14 23:09N 44°32' E 037°17'  
2017-Oct-10 08:04N 44°33' E 037°09'0 0.9
2017-Oct-10 08:00N 44°33' E 037°10'1 0.7
2017-Oct-10 07:12N 44°34' E 037°10'0 0.4
2017-Oct-10 06:58N 44°34' E 037°10'5 0.3
2017-Oct-09 14:36N 44°32' E 037°04'2 4.6
2017-Oct-09 14:14N 44°32' E 037°02'24 1.2
2017-Oct-08 18:36N 44°21' E 037°32'1 5.9
2017-Oct-08 18:23N 44°22' E 037°32'1 3.3
2017-Oct-08 18:00N 44°23' E 037°30'1 1.9
2017-Oct-08 17:30N 44°22' E 037°31'1 1.8
2017-Oct-08 17:00N 44°22' E 037°33'1 1.8
2017-Oct-08 16:31N 44°22' E 037°34'1 1.9
2017-Oct-08 16:01N 44°21' E 037°35'1 2.0
2017-Oct-08 15:31N 44°21' E 037°37'1 2.1
2017-Oct-08 15:01N 44°21' E 037°38'1 2.1
2017-Oct-08 14:31N 44°21' E 037°39'1 2.1
2017-Oct-08 14:01N 44°21' E 037°41'1 2.1
2017-Oct-08 13:30N 44°20' E 037°42'1 2.1
2017-Oct-08 13:01N 44°20' E 037°44'1 2.1
2017-Oct-08 12:31N 44°20' E 037°45'1 2.3
2017-Oct-08 12:01N 44°19' E 037°47'1 2.5
2017-Oct-08 11:31N 44°19' E 037°48'1 2.3
2017-Oct-08 11:00N 44°18' E 037°50'1 2.0
2017-Oct-08 10:30N 44°18' E 037°51'1 2.0
2017-Oct-08 10:01N 44°18' E 037°52'1936.5
2017-Oct-08 09:30N 44°36' E 038°01'2142.6
2017-Oct-08 09:00N 44°18' E 037°45'612.3
2017-Oct-08 08:30N 44°18' E 037°36'612.4
2017-Oct-08 08:00N 44°18' E 037°28'612.4
2017-Oct-08 07:30N 44°19' E 037°19'612.3
2017-Oct-08 07:00N 44°19' E 037°11'811.1
2017-Oct-08 06:14N 44°20' E 036°59'3 2.4
2017-Oct-08 04:55N 44°20' E 037°03'3 2.0
2017-Oct-08 03:28N 44°21' E 037°07'1 1.4
2017-Oct-08 03:00N 44°21' E 037°08'1 1.4
2017-Oct-08 02:30N 44°21' E 037°09'1 1.4
2017-Oct-08 02:00N 44°21' E 037°10'1 1.4
2017-Oct-08 01:30N 44°22' E 037°11'1 1.4
2017-Oct-08 01:00N 44°22' E 037°11'1 1.3
2017-Oct-08 00:30N 44°22' E 037°12'1 1.3
2017-Oct-08 00:00N 44°23' E 037°13'1 1.3
2017-Oct-07 23:30N 44°23' E 037°14'1 1.2
2017-Oct-07 23:00N 44°23' E 037°14'1 1.3
2017-Oct-07 22:30N 44°24' E 037°15'1 1.3
2017-Oct-07 22:00N 44°24' E 037°16'1 1.2
2017-Oct-07 21:30N 44°24' E 037°17'3 1.7
2017-Oct-07 20:01N 44°26' E 037°20'5 5.4
2017-Oct-07 19:05N 44°31' E 037°19'0 1.1
2017-Oct-07 18:56N 44°30' E 037°19'0 0.7
2017-Oct-07 18:20N 44°30' E 037°19'1 0.8
2017-Oct-07 16:50N 44°29' E 037°20'0 0.8
2017-Oct-07 16:27N 44°29' E 037°21'0 0.7
2017-Oct-07 15:59N 44°29' E 037°21'0 0.7
2017-Oct-07 15:28N 44°28' E 037°21'0 0.7
2017-Oct-07 14:58N 44°28' E 037°22'0 0.9
2017-Oct-07 14:30N 44°28' E 037°22'0 0.9
2017-Oct-07 13:59N 44°27' E 037°21'7 9.9
2017-Oct-07 13:19N 44°31' E 037°13'413.0
2017-Oct-07 12:59N 44°33' E 037°08'613.1
2017-Oct-07 12:30N 44°36' E 037°01'  
Track history (hours):
 
Tides and Currents Weather Stations Pressure Air Temp Water Temp Dewpoint Dewpoint Depression Visibility Wind Speed Wind Dir Waves Ship Positions

Aleksey Kosygin

Last reported at 2017-Oct-17 10:00 UTC. Time now 2017-Oct-17 10:04 UTC.
Position N 44°17' E 037°49'.

Length 280 m; draft 9.1 m.

Type: Tanker. MMSI: 636013296.

Date/timePositionNaut miles runAvg speedWind from/ knotsBaromVisibWave heightAir tempDewpointWater temp
2017-Oct-17 10:00N 44°17' E 037°49'1 1.1
2017-Oct-17 09:30N 44°17' E 037°48'1 1.0
2017-Oct-17 09:00N 44°16' E 037°48'1 1.1
2017-Oct-17 08:26N 44°16' E 037°47'0 1.2
2017-Oct-17 08:00N 44°15' E 037°47'2339.2
2017-Oct-17 07:26N 44°36' E 038°01'2222.3
2017-Oct-17 06:27N 44°15' E 037°53'3 6.8
2017-Oct-17 05:59N 44°15' E 037°57'2 3.8
2017-Oct-17 05:29N 44°15' E 037°60'1 1.7
2017-Oct-17 05:00N 44°14' E 037°59'1 1.6
2017-Oct-17 04:30N 44°14' E 037°58'1 1.6
2017-Oct-17 03:59N 44°13' E 037°57'1 1.3
2017-Oct-17 03:10N 44°13' E 037°55'0 1.1
2017-Oct-17 02:51N 44°13' E 037°55'1 1.1
2017-Oct-17 02:19N 44°12' E 037°54'1 0.9
2017-Oct-17 00:52N 44°12' E 037°53'1 1.1
2017-Oct-17 00:24N 44°12' E 037°52'4 0.9
2017-Oct-16 19:49N 44°12' E 037°46'7 1.3
2017-Oct-16 14:39N 44°15' E 037°37'1 1.8
2017-Oct-16 14:17N 44°15' E 037°37'1 1.9
2017-Oct-16 13:29N 44°16' E 037°35'1 2.0
2017-Oct-16 13:00N 44°16' E 037°33'1 2.0
2017-Oct-16 12:30N 44°16' E 037°32'1 1.9
2017-Oct-16 12:00N 44°16' E 037°30'1 1.9
2017-Oct-16 11:25N 44°16' E 037°29'1 1.8
2017-Oct-16 11:00N 44°16' E 037°28'1 1.5
2017-Oct-16 10:30N 44°16' E 037°27'1 1.5
2017-Oct-16 10:00N 44°16' E 037°26'1 1.3
2017-Oct-16 09:27N 44°16' E 037°25'1 1.4
2017-Oct-16 08:57N 44°17' E 037°24'1 1.5
2017-Oct-16 08:30N 44°17' E 037°23'1 1.3
2017-Oct-16 07:59N 44°17' E 037°22'1 1.4
2017-Oct-16 07:27N 44°18' E 037°21'1 1.3
2017-Oct-16 06:58N 44°18' E 037°21'1 1.3
2017-Oct-16 06:31N 44°19' E 037°20'1 1.2
2017-Oct-16 06:00N 44°19' E 037°19'1 1.2
2017-Oct-16 05:13N 44°20' E 037°18'0 1.3
2017-Oct-16 04:55N 44°20' E 037°18'12 0.6
2017-Oct-15 07:48N 44°29' E 037°07'8 0.9
2017-Oct-14 23:09N 44°32' E 037°17'  
2017-Oct-10 08:04N 44°33' E 037°09'0 0.9
2017-Oct-10 08:00N 44°33' E 037°10'1 0.7
2017-Oct-10 07:12N 44°34' E 037°10'0 0.4
2017-Oct-10 06:58N 44°34' E 037°10'5 0.3
2017-Oct-09 14:36N 44°32' E 037°04'2 4.6
2017-Oct-09 14:14N 44°32' E 037°02'24 1.2
2017-Oct-08 18:36N 44°21' E 037°32'1 5.9
2017-Oct-08 18:23N 44°22' E 037°32'1 3.3
2017-Oct-08 18:00N 44°23' E 037°30'1 1.9
2017-Oct-08 17:30N 44°22' E 037°31'1 1.8
2017-Oct-08 17:00N 44°22' E 037°33'1 1.8
2017-Oct-08 16:31N 44°22' E 037°34'1 1.9
2017-Oct-08 16:01N 44°21' E 037°35'1 2.0
2017-Oct-08 15:31N 44°21' E 037°37'1 2.1
2017-Oct-08 15:01N 44°21' E 037°38'1 2.1
2017-Oct-08 14:31N 44°21' E 037°39'1 2.1
2017-Oct-08 14:01N 44°21' E 037°41'1 2.1
2017-Oct-08 13:30N 44°20' E 037°42'1 2.1
2017-Oct-08 13:01N 44°20' E 037°44'1 2.1
2017-Oct-08 12:31N 44°20' E 037°45'1 2.3
2017-Oct-08 12:01N 44°19' E 037°47'1 2.5
2017-Oct-08 11:31N 44°19' E 037°48'1 2.3
2017-Oct-08 11:00N 44°18' E 037°50'1 2.0
2017-Oct-08 10:30N 44°18' E 037°51'1 2.0
2017-Oct-08 10:01N 44°18' E 037°52'1936.5
2017-Oct-08 09:30N 44°36' E 038°01'2142.6
2017-Oct-08 09:00N 44°18' E 037°45'612.3
2017-Oct-08 08:30N 44°18' E 037°36'612.4
2017-Oct-08 08:00N 44°18' E 037°28'612.4
2017-Oct-08 07:30N 44°19' E 037°19'612.3
2017-Oct-08 07:00N 44°19' E 037°11'811.1
2017-Oct-08 06:14N 44°20' E 036°59'3 2.4
2017-Oct-08 04:55N 44°20' E 037°03'3 2.0
2017-Oct-08 03:28N 44°21' E 037°07'1 1.4
2017-Oct-08 03:00N 44°21' E 037°08'1 1.4
2017-Oct-08 02:30N 44°21' E 037°09'1 1.4
2017-Oct-08 02:00N 44°21' E 037°10'1 1.4
2017-Oct-08 01:30N 44°22' E 037°11'1 1.4
2017-Oct-08 01:00N 44°22' E 037°11'1 1.3
2017-Oct-08 00:30N 44°22' E 037°12'1 1.3
2017-Oct-08 00:00N 44°23' E 037°13'1 1.3
2017-Oct-07 23:30N 44°23' E 037°14'1 1.2
2017-Oct-07 23:00N 44°23' E 037°14'1 1.3
2017-Oct-07 22:30N 44°24' E 037°15'1 1.3
2017-Oct-07 22:00N 44°24' E 037°16'1 1.2
2017-Oct-07 21:30N 44°24' E 037°17'3 1.7
2017-Oct-07 20:01N 44°26' E 037°20'5 5.4
2017-Oct-07 19:05N 44°31' E 037°19'0 1.1
2017-Oct-07 18:56N 44°30' E 037°19'0 0.7
2017-Oct-07 18:20N 44°30' E 037°19'1 0.8
2017-Oct-07 16:50N 44°29' E 037°20'0 0.8
2017-Oct-07 16:27N 44°29' E 037°21'0 0.7
2017-Oct-07 15:59N 44°29' E 037°21'0 0.7
2017-Oct-07 15:28N 44°28' E 037°21'0 0.7
2017-Oct-07 14:58N 44°28' E 037°22'0 0.9
2017-Oct-07 14:30N 44°28' E 037°22'0 0.9
2017-Oct-07 13:59N 44°27' E 037°21'7 9.9
2017-Oct-07 13:19N 44°31' E 037°13'413.0
2017-Oct-07 12:59N 44°33' E 037°08'613.1
2017-Oct-07 12:30N 44°36' E 037°01'  

Dump ship's entire track history